Time;durP1;ratioP1;P1;durP2;ratioP2;P2;SDS_P1;SDS_P2;PMS_P1;PMS_P2;Temp;Humidity;BMP_temperature;BMP_pressure;BME280_temperature;BME280_humidity;BME280_pressure;Samples;Min_cycle;Max_cycle;Signal;HPM_P1;HPM_P2
2024/02/08 00:00:57;;;;;;;0.80;0.70;;;;;;;6.80;94.70;98824.16;10390897;28;20171;-61
2024/02/08 00:05:59;;;;;;;0.90;0.80;;;;;;;6.68;94.30;98805.75;10395443;28;20127;-63
2024/02/08 00:11:02;;;;;;;1.70;0.80;;;;;;;6.80;93.90;98808.28;10388817;28;20051;-63
2024/02/08 00:16:05;;;;;;;0.90;0.75;;;;;;;6.51;94.24;98756.16;10390434;28;20056;-62
2024/02/08 00:21:09;;;;;;;1.77;0.98;;;;;;;6.58;93.89;98770.53;10382180;28;20114;-61
2024/02/08 00:26:10;;;;;;;1.55;1.45;;;;;;;6.73;93.75;98803.53;10387695;28;20041;-64
2024/02/08 00:31:12;;;;;;;1.50;1.40;;;;;;;6.75;95.18;98799.94;10389630;28;20658;-63
2024/02/08 00:36:15;;;;;;;1.80;1.30;;;;;;;6.73;94.70;98785.03;10384707;28;20052;-61
2024/02/08 00:41:16;;;;;;;1.40;1.30;;;;;;;6.75;94.97;98794.66;10385283;28;20187;-62
2024/02/08 00:46:19;;;;;;;1.67;1.58;;;;;;;6.85;95.74;98800.81;10399679;28;20774;-62
2024/02/08 00:51:21;;;;;;;1.73;1.50;;;;;;;6.80;94.65;98789.78;10384083;28;20705;-64
2024/02/08 00:56:23;;;;;;;2.08;1.60;;;;;;;6.78;94.87;98786.44;10388486;28;20052;-61
2024/02/08 01:01:24;;;;;;;2.15;1.95;;;;;;;6.84;96.10;98786.72;10389116;28;20128;-62
2024/02/08 01:06:26;;;;;;;2.67;2.30;;;;;;;6.85;95.03;98795.50;10385558;28;20132;-64
2024/02/08 01:11:27;;;;;;;2.20;2.00;;;;;;;6.79;94.90;98774.91;10383221;28;20044;-63
2024/02/08 01:16:30;;;;;;;31.63;22.70;;;;;;;6.81;94.71;98792.28;10388367;28;20044;-64
2024/02/08 01:21:31;;;;;;;7.22;5.65;;;;;;;6.80;94.44;98792.41;10384277;28;20498;-63
2024/02/08 01:26:33;;;;;;;3.47;3.17;;;;;;;6.68;94.82;98781.09;10388543;28;20057;-63
2024/02/08 01:31:37;;;;;;;3.20;2.90;;;;;;;6.76;94.96;98783.09;10386612;28;20108;-63
2024/02/08 01:36:40;;;;;;;3.67;3.37;;;;;;;6.78;95.22;98792.56;10384314;28;20080;-64
2024/02/08 01:41:43;;;;;;;4.05;3.70;;;;;;;6.79;94.99;98807.47;10384461;28;20531;-64
2024/02/08 01:46:48;;;;;;;4.50;3.80;;;;;;;6.79;94.71;98801.34;10375415;28;20060;-62
2024/02/08 01:51:59;;;;;;;3.95;3.58;;;;;;;6.80;95.56;98808.28;10374549;28;20059;-61
2024/02/08 01:57:03;;;;;;;3.50;3.20;;;;;;;6.83;95.07;98800.09;10391243;28;20053;-63
2024/02/08 02:02:07;;;;;;;3.53;3.22;;;;;;;6.60;95.79;98757.16;10394080;28;20658;-64
2024/02/08 02:07:10;;;;;;;3.10;2.80;;;;;;;6.82;95.73;98791.31;10394640;28;20103;-64
2024/02/08 02:12:16;;;;;;;2.92;2.63;;;;;;;6.79;95.01;98796.88;10394867;28;20546;-65
2024/02/08 02:17:19;;;;;;;3.17;2.70;;;;;;;6.81;94.76;98794.94;10404714;28;20052;-65
2024/02/08 02:22:21;;;;;;;2.50;2.30;;;;;;;6.80;95.80;98787.13;10391950;28;20044;-64
2024/02/08 02:27:23;;;;;;;2.15;1.85;;;;;;;6.79;94.92;98772.25;10389909;28;20206;-65
2024/02/08 02:32:27;;;;;;;1.90;1.70;;;;;;;6.81;95.33;98772.94;10384147;28;20053;-65
2024/02/08 02:37:33;;;;;;;1.77;1.63;;;;;;;6.82;95.06;98775.44;10397313;28;20466;-65
2024/02/08 02:42:35;;;;;;;1.85;1.38;;;;;;;6.78;96.23;98762.63;10382451;28;20048;-66
2024/02/08 02:47:36;;;;;;;1.30;1.20;;;;;;;6.86;96.07;98774.22;10369516;28;20065;-65
2024/02/08 02:52:38;;;;;;;1.92;1.30;;;;;;;6.85;94.74;98779.63;10396374;28;20057;-64
2024/02/08 02:57:41;;;;;;;1.42;1.08;;;;;;;6.86;94.59;98778.66;10396050;28;20491;-65
2024/02/08 03:02:43;;;;;;;1.37;1.20;;;;;;;6.84;94.85;98770.84;10399950;28;20053;-64
2024/02/08 03:07:45;;;;;;;1.23;1.10;;;;;;;6.82;94.34;98770.16;10394251;28;20048;-66
2024/02/08 03:12:51;;;;;;;1.52;1.38;;;;;;;6.78;95.20;98755.53;10392227;28;20076;-65
2024/02/08 03:17:55;;;;;;;1.50;1.30;;;;;;;6.80;95.71;98750.09;10374606;28;20048;-64
2024/02/08 03:22:57;;;;;;;2.85;1.00;;;;;;;6.86;95.17;98754.84;10398189;28;20045;-64
2024/02/08 03:27:58;;;;;;;1.08;0.80;;;;;;;6.80;95.54;98744.81;10368703;28;20152;-65
2024/02/08 03:33:12;;;;;;;1.20;0.98;;;;;;;6.82;96.27;98748.19;10392222;28;20655;-65
2024/02/08 03:38:14;;;;;;;1.13;0.77;;;;;;;6.82;96.33;98750.81;10362565;28;20092;-64
2024/02/08 03:43:16;;;;;;;1.10;0.88;;;;;;;6.78;95.69;98752.06;10402195;28;21909;-65
2024/02/08 03:48:19;;;;;;;1.40;1.25;;;;;;;6.61;96.46;98741.16;10369609;28;20041;-65
2024/02/08 03:53:24;;;;;;;1.77;1.60;;;;;;;6.55;96.34;98737.25;10370967;28;20083;-65
2024/02/08 03:58:26;;;;;;;1.55;1.30;;;;;;;6.68;96.54;98754.66;10385624;28;20053;-65
2024/02/08 04:03:52;;;;;;;1.42;1.17;;;;;;;6.63;97.47;98749.78;10375918;28;20171;-64
2024/02/08 04:09:08;;;;;;;2.05;0.90;;;;;;;6.66;97.76;98744.22;10365195;28;20057;-65
2024/02/08 04:57:07;;;;;;;1.58;1.40;;;;;;;6.72;98.01;98738.41;10397155;28;20041;-65
2024/02/08 05:02:10;;;;;;;1.90;1.52;;;;;;;6.76;98.82;98740.78;10402008;28;20728;-64
2024/02/08 05:07:11;;;;;;;1.80;1.38;;;;;;;6.80;97.51;98734.22;10399602;28;20685;-64
2024/02/08 05:12:13;;;;;;;1.85;1.52;;;;;;;6.75;97.72;98717.94;10397406;28;20466;-64
2024/02/08 05:17:14;;;;;;;1.67;1.40;;;;;;;6.67;98.10;98718.63;10397580;28;20572;-64
2024/02/08 05:22:17;;;;;;;1.67;1.58;;;;;;;6.72;98.01;98726.97;10400457;28;20759;-66
2024/02/08 05:27:22;;;;;;;1.60;1.40;;;;;;;6.79;98.27;98724.66;10387570;28;20056;-64
2024/02/08 05:32:24;;;;;;;1.85;1.52;;;;;;;6.80;97.55;98723.66;10385697;28;20048;-64
2024/02/08 05:37:29;;;;;;;2.15;1.83;;;;;;;6.73;96.30;98718.91;10387179;28;20145;-64
2024/02/08 05:42:33;;;;;;;1.98;1.63;;;;;;;6.78;96.65;98709.75;10382456;28;20049;-65
2024/02/08 05:47:36;;;;;;;3.28;2.50;;;;;;;6.75;96.59;98721.41;10398077;28;20122;-66
2024/02/08 05:52:38;;;;;;;3.15;2.60;;;;;;;6.80;96.72;98706.00;10379279;28;20064;-65
2024/02/08 05:57:44;;;;;;;3.47;2.70;;;;;;;6.79;97.31;98698.19;10392970;28;20167;-65
2024/02/08 06:02:46;;;;;;;2.75;2.17;;;;;;;6.80;96.62;98705.13;10383334;28;20105;-64
2024/02/08 06:07:56;;;;;;;4.15;2.80;;;;;;;6.73;96.93;98713.63;10371635;28;20604;-64
2024/02/08 06:12:59;;;;;;;3.58;2.83;;;;;;;6.72;97.28;98711.97;10355082;28;20049;-65
2024/02/08 06:18:04;;;;;;;2.80;2.42;;;;;;;6.82;97.55;98724.38;10369774;28;20076;-64
2024/02/08 06:23:27;;;;;;;3.38;2.63;;;;;;;6.88;97.12;98726.47;10395828;28;20112;-64
2024/02/08 06:28:29;;;;;;;4.03;3.03;;;;;;;6.87;97.33;98727.44;10396469;28;20587;-64
2024/02/08 06:33:42;;;;;;;3.80;3.08;;;;;;;6.87;96.90;98730.06;10380644;28;20063;-66
2024/02/08 06:38:51;;;;;;;4.80;3.63;;;;;;;6.86;96.25;98726.59;10378742;28;20055;-64
2024/02/08 07:37:25;;;;;;;4.68;3.92;;;;;;;6.69;97.52;98699.00;10372511;28;20076;-63
2024/02/08 07:42:32;;;;;;;5.25;4.18;;;;;;;6.71;97.34;98702.34;10387390;28;20519;-62
2024/02/08 07:47:36;;;;;;;4.85;3.50;;;;;;;6.76;97.81;98711.69;10376215;28;20046;-62
2024/02/08 07:52:45;;;;;;;3.88;3.45;;;;;;;6.73;98.16;98713.63;10384210;28;20471;-62
2024/02/08 07:57:58;;;;;;;4.38;3.35;;;;;;;6.90;97.80;98724.50;10392091;28;20153;-62
2024/02/08 08:03:07;;;;;;;5.45;3.53;;;;;;;6.84;97.58;98714.47;10393240;28;20059;-61
2024/02/08 08:19:08;;;;;;;3.67;2.97;;;;;;;6.85;98.31;98692.34;10391631;28;20058;-64
2024/02/08 08:24:25;;;;;;;4.40;4.00;;;;;;;7.03;98.13;98706.56;10383770;28;20053;-63
2024/02/08 08:29:42;;;;;;;4.43;3.10;;;;;;;6.99;98.32;98714.91;10392534;28;20169;-64
2024/02/08 08:45:25;;;;;;;2.90;2.35;;;;;;;7.05;99.21;98704.59;10391807;28;20563;-65
2024/02/08 08:50:33;;;;;;;3.08;2.40;;;;;;;7.10;98.57;98700.72;10372141;28;20138;-61
2024/02/08 08:55:39;;;;;;;4.55;2.60;;;;;;;7.11;99.21;98702.38;10394396;28;20064;-62
2024/02/08 09:00:46;;;;;;;2.90;2.28;;;;;;;7.17;99.10;98701.81;10391983;28;20731;-63
2024/02/08 09:05:50;;;;;;;2.63;2.05;;;;;;;7.21;99.64;98695.28;10385637;28;20087;-63
2024/02/08 09:10:52;;;;;;;2.97;2.28;;;;;;;7.29;99.75;98698.06;10398986;28;20135;-63
2024/02/08 09:16:29;;;;;;;;;;;;;;;7.33;100.00;98694.16;10383190;28;20049;-62
2024/02/08 09:21:21;;;;;;;3.35;1.77;;;;;;;7.38;100.00;98681.31;10402474;28;19925;-64
2024/02/08 09:26:46;;;;;;;;;;;;;;;7.45;100.00;98676.31;10405554;28;20065;-63
2024/02/08 09:31:47;;;;;;;3.50;2.78;;;;;;;7.34;99.85;98645.53;10389249;28;19924;-62
2024/02/08 09:36:49;;;;;;;2.88;2.58;;;;;;;7.51;100.00;98659.03;10361811;28;20083;-61
2024/02/08 09:41:50;;;;;;;3.60;2.95;;;;;;;7.54;99.90;98658.75;10403373;28;20057;-64
2024/02/08 09:46:56;;;;;;;3.50;2.35;;;;;;;7.51;99.92;98651.09;10355122;28;20058;-62
2024/02/08 09:52:14;;;;;;;3.08;2.42;;;;;;;7.48;100.00;98635.47;10385493;28;20051;-62
2024/02/08 09:57:22;;;;;;;3.17;2.53;;;;;;;7.63;100.00;98652.56;10389976;28;20124;-61
2024/02/08 10:02:32;;;;;;;3.55;2.70;;;;;;;7.66;100.00;98651.47;10367257;28;20060;-63
2024/02/08 10:07:36;;;;;;;3.63;3.00;;;;;;;7.64;99.99;98642.81;10391604;28;20041;-62
2024/02/08 10:12:53;;;;;;;4.43;3.47;;;;;;;7.67;99.63;98640.72;10390055;28;20154;-61
2024/02/08 10:18:02;;;;;;;4.35;3.95;;;;;;;7.63;100.00;98636.69;10386019;28;20048;-63
2024/02/08 10:23:33;;;;;;;4.35;3.53;;;;;;;7.69;100.00;98625.50;10380036;28;20032;-63
2024/02/08 10:28:32;;;;;;;4.25;3.30;;;;;;;7.68;99.89;98629.13;10398793;28;20561;-63
2024/02/08 10:33:38;;;;;;;3.00;2.65;;;;;;;7.71;100.00;98618.25;10397691;28;20053;-64
2024/02/08 10:38:55;;;;;;;3.55;3.08;;;;;;;7.69;100.00;98603.50;10393494;28;20053;-62
2024/02/08 10:43:58;;;;;;;;;;;;;;;7.70;100.00;98599.84;10383433;28;20050;-61
2024/02/08 10:49:08;;;;;;;2.63;2.30;;;;;;;7.70;100.00;98576.88;10390378;28;19940;-63
2024/02/08 10:54:14;;;;;;;3.20;2.53;;;;;;;7.69;100.00;98564.59;10358249;28;20033;-64
2024/02/08 11:04:40;;;;;;;2.83;2.28;;;;;;;7.79;100.00;98540.69;10371901;28;20045;-61
2024/02/08 11:09:45;;;;;;;3.80;2.13;;;;;;;7.75;100.00;98516.34;10388135;28;20044;-62
2024/02/08 11:14:56;;;;;;;2.17;1.55;;;;;;;7.88;100.00;98523.94;10395723;28;20076;-63
2024/02/08 11:19:58;;;;;;;3.13;2.67;;;;;;;7.86;100.00;98498.56;10396205;28;20067;-61
2024/02/08 11:25:19;;;;;;;2.25;2.00;;;;;;;7.88;100.00;98486.84;10398000;28;20042;-63
2024/02/08 11:30:34;;;;;;;2.95;2.65;;;;;;;7.83;100.00;98464.44;10378448;28;20077;-63
2024/02/08 11:35:45;;;;;;;3.65;3.08;;;;;;;7.95;100.00;98465.88;10401041;28;20053;-62
2024/02/08 11:40:50;;;;;;;2.67;2.45;;;;;;;7.95;100.00;98452.63;10397792;28;20370;-64
2024/02/08 11:45:52;;;;;;;;;;;;;;;8.02;100.00;98450.22;10386131;28;20185;-62
2024/02/08 11:50:58;;;;;;;1.95;1.60;;;;;;;7.95;100.00;98445.50;10377004;28;20064;-63
2024/02/08 11:56:09;;;;;;;2.30;2.10;;;;;;;8.01;100.00;98427.34;10395641;28;20056;-64
2024/02/08 12:01:14;;;;;;;3.65;3.35;;;;;;;8.08;100.00;98418.63;10376877;28;20053;-63
2024/02/08 12:06:22;;;;;;;3.70;2.83;;;;;;;8.04;100.00;98411.16;10384190;28;20083;-63
2024/02/08 12:11:29;;;;;;;3.10;2.80;;;;;;;7.99;100.00;98410.75;10390755;28;20775;-63
2024/02/08 12:16:35;;;;;;;3.75;3.45;;;;;;;8.05;100.00;98407.53;10367491;28;20044;-63
2024/02/08 12:21:37;;;;;;;5.03;3.38;;;;;;;8.05;100.00;98400.41;10400532;28;20619;-62
2024/02/08 12:26:38;;;;;;;4.55;3.88;;;;;;;7.93;100.00;98375.13;10386695;28;20113;-60
2024/02/08 12:31:41;;;;;;;5.05;4.22;;;;;;;8.05;100.00;98387.13;10393599;28;20044;-61
2024/02/08 12:36:46;;;;;;;4.50;4.03;;;;;;;8.11;100.00;98383.06;10380748;28;20592;-63
2024/02/08 12:41:52;;;;;;;5.68;3.63;;;;;;;8.19;100.00;98387.59;10390636;28;20053;-64
2024/02/08 12:47:09;;;;;;;3.47;3.17;;;;;;;8.12;100.00;98367.00;10392787;28;20060;-64
2024/02/08 12:52:15;;;;;;;3.40;2.60;;;;;;;8.05;100.00;98360.66;10377586;28;20053;-63
2024/02/08 12:57:18;;;;;;;2.80;2.60;;;;;;;7.99;100.00;98340.06;10348615;28;20060;-61
2024/02/08 13:02:20;;;;;;;3.95;3.25;;;;;;;8.17;100.00;98320.63;10377836;28;20086;-63
2024/02/08 13:07:25;;;;;;;3.63;3.22;;;;;;;8.24;100.00;98332.28;10376347;28;20139;-60
2024/02/08 13:12:29;;;;;;;4.13;3.38;;;;;;;8.26;100.00;98325.03;10389867;28;20647;-62
2024/02/08 13:17:33;;;;;;;4.35;3.20;;;;;;;8.07;100.00;98302.19;10370587;28;20073;-63
2024/02/08 13:22:35;;;;;;;3.08;2.78;;;;;;;8.19;100.00;98318.66;10383625;28;20168;-63
2024/02/08 13:27:38;;;;;;;4.93;3.20;;;;;;;8.23;100.00;98330.63;10390860;28;20147;-66
2024/02/08 13:32:40;;;;;;;4.22;3.50;;;;;;;8.19;100.00;98308.06;10380222;28;20056;-63
2024/02/08 13:37:41;;;;;;;3.75;3.20;;;;;;;8.23;100.00;98304.13;10382982;28;20053;-64
2024/02/08 13:42:43;;;;;;;3.00;2.70;;;;;;;8.24;100.00;98285.41;10365616;28;20506;-63
2024/02/08 13:47:56;;;;;;;4.10;3.13;;;;;;;8.07;100.00;98284.47;10389826;28;20041;-65
2024/02/08 13:53:01;;;;;;;3.53;3.10;;;;;;;8.25;100.00;98270.34;10366836;28;21103;-65
2024/02/08 13:58:08;;;;;;;;;;;;;;;8.35;100.00;98275.50;10374320;28;20586;-63
2024/02/08 14:03:09;;;;;;;5.20;3.78;;;;;;;8.42;100.00;98277.41;10380345;28;20039;-62
2024/02/08 14:08:16;;;;;;;4.80;3.75;;;;;;;8.45;100.00;98273.59;10368486;28;20057;-63
2024/02/08 14:13:28;;;;;;;4.80;4.32;;;;;;;8.42;100.00;98272.09;10389288;28;20379;-62
2024/02/08 14:18:34;;;;;;;5.38;4.68;;;;;;;8.48;100.00;98274.13;10363811;28;20049;-62
2024/02/08 14:23:48;;;;;;;5.50;4.20;;;;;;;8.46;100.00;98262.03;10395976;28;20048;-62
2024/02/08 14:28:55;;;;;;;5.70;4.70;;;;;;;8.40;100.00;98246.72;10384760;28;20178;-61
2024/02/08 14:33:57;;;;;;;6.72;6.05;;;;;;;8.36;100.00;98230.31;10391309;28;20151;-62
2024/02/08 14:39:00;;;;;;;28.83;24.67;;;;;;;8.52;100.00;98236.69;10388992;28;20160;-62
2024/02/08 14:44:06;;;;;;;7.32;6.32;;;;;;;8.61;100.00;98241.03;10393258;28;20134;-61
2024/02/08 14:49:23;;;;;;;7.65;6.13;;;;;;;8.63;100.00;98225.78;10388091;28;20065;-60
2024/02/08 14:54:29;;;;;;;7.75;5.55;;;;;;;8.62;100.00;98213.53;10384563;28;20610;-60
2024/02/08 14:59:50;;;;;;;8.93;6.03;;;;;;;8.71;100.00;98217.00;10384559;28;20080;-62
2024/02/08 15:04:53;;;;;;;7.80;7.00;;;;;;;8.67;100.00;98201.44;10378959;28;21377;-62
2024/02/08 15:09:57;;;;;;;10.05;8.02;;;;;;;8.78;100.00;98202.97;10389498;28;20556;-62
2024/02/08 15:15:04;;;;;;;9.38;7.40;;;;;;;8.78;100.00;98195.00;10397622;28;20051;-62
2024/02/08 15:20:36;;;;;;;7.90;6.85;;;;;;;8.82;100.00;98187.53;10400686;28;20051;-61
2024/02/08 15:25:34;;;;;;;20.83;18.38;;;;;;;8.80;100.00;98181.59;10380551;28;20041;-62
2024/02/08 15:30:40;;;;;;;12.35;10.35;;;;;;;8.83;100.00;98183.91;10394928;28;20068;-60
2024/02/08 15:35:52;;;;;;;10.50;9.02;;;;;;;8.88;100.00;98164.84;10392708;28;20067;-62
2024/02/08 15:41:06;;;;;;;11.43;9.68;;;;;;;8.89;100.00;98155.88;10391810;28;20587;-62
2024/02/08 15:46:10;;;;;;;10.50;9.25;;;;;;;8.85;100.00;98150.91;10395211;28;20065;-61
2024/02/08 15:51:13;;;;;;;10.75;7.72;;;;;;;8.81;100.00;98133.66;10379589;28;20070;-64
2024/02/08 15:56:19;;;;;;;10.27;8.13;;;;;;;8.89;100.00;98121.38;10379282;28;20192;-60
2024/02/08 16:01:48;;;;;;;9.73;8.57;;;;;;;8.97;100.00;98126.72;10390662;28;20478;-63
2024/02/08 16:06:42;;;;;;;8.27;7.25;;;;;;;9.01;100.00;98112.94;10361421;28;20910;-63
2024/02/08 16:11:45;;;;;;;9.23;6.85;;;;;;;9.01;100.00;98097.00;10393538;28;20064;-61
2024/02/08 16:17:05;;;;;;;9.73;7.28;;;;;;;9.19;100.00;98111.94;10389905;28;20067;-64
2024/02/08 16:22:19;;;;;;;7.88;6.68;;;;;;;9.22;100.00;98110.75;10393936;28;20120;-61
2024/02/08 16:27:20;;;;;;;10.20;7.88;;;;;;;9.24;100.00;98106.94;10382414;28;20069;-62
2024/02/08 16:32:33;;;;;;;8.98;7.15;;;;;;;9.30;100.00;98108.13;10395737;28;20148;-63
2024/02/08 16:37:51;;;;;;;11.38;7.88;;;;;;;9.38;100.00;98108.09;10397328;28;20061;-65
2024/02/08 16:42:56;;;;;;;9.25;7.15;;;;;;;9.41;100.00;98096.31;10389422;28;20040;-61
2024/02/08 16:48:08;;;;;;;24.02;21.50;;;;;;;9.50;100.00;98114.72;10375762;28;20147;-63
2024/02/08 16:53:14;;;;;;;76.22;54.72;;;;;;;9.59;100.00;98109.38;10396516;28;20534;-64
2024/02/08 16:58:28;;;;;;;30.88;18.05;;;;;;;9.70;100.00;98111.69;10392050;28;20053;-64
2024/02/08 17:03:50;;;;;;;19.55;9.43;;;;;;;9.81;100.00;98119.28;10391271;28;20164;-64
2024/02/08 17:09:15;;;;;;;14.98;8.23;;;;;;;9.93;100.00;98116.28;10369443;28;20537;-64
2024/02/08 17:19:46;;;;;;;12.35;4.20;;;;;;;10.02;100.00;98099.28;10360792;28;19936;-62
2024/02/08 17:30:17;;;;;;;10.85;4.63;;;;;;;10.22;100.00;98105.00;10385441;28;20215;-64
2024/02/08 17:35:21;;;;;;;12.07;7.28;;;;;;;10.26;100.00;98107.13;10379733;28;20732;-64
2024/02/08 17:40:29;;;;;;;11.45;5.43;;;;;;;10.33;100.00;98103.78;10388214;28;20056;-65
2024/02/08 17:50:52;;;;;;;9.05;3.95;;;;;;;10.14;100.00;98058.03;10396394;28;20049;-66
2024/02/08 17:55:54;;;;;;;11.77;4.13;;;;;;;10.42;100.00;98100.13;10370212;28;20514;-64
2024/02/08 18:00:57;;;;;;;11.27;3.38;;;;;;;10.48;100.00;98099.44;10398585;28;20400;-65
2024/02/08 18:06:03;;;;;;;6.53;3.45;;;;;;;10.44;100.00;98087.47;10392116;28;20538;-65
2024/02/08 18:11:08;;;;;;;12.70;4.22;;;;;;;10.52;100.00;98090.06;10378636;28;20045;-65
2024/02/08 18:21:26;;;;;;;13.55;4.60;;;;;;;10.61;100.00;98093.50;10289920;23;20373;-66
2024/02/08 18:26:31;;;;;;;9.18;3.80;;;;;;;10.65;100.00;98083.34;10242877;28;20562;-63
2024/02/08 18:31:37;;;;;;;12.98;3.85;;;;;;;10.69;100.00;98088.16;10197360;28;20055;-65
2024/02/08 18:36:41;;;;;;;12.73;4.60;;;;;;;10.71;100.00;98095.94;10189073;28;20619;-65
2024/02/08 18:41:50;;;;;;;11.83;4.57;;;;;;;10.75;100.00;98099.91;10204364;28;20044;-67
2024/02/08 18:46:53;;;;;;;12.50;4.65;;;;;;;10.77;100.00;98100.56;10195106;28;20062;-65
2024/02/08 18:51:57;;;;;;;13.65;5.32;;;;;;;10.78;100.00;98094.25;10200397;28;20051;-64
2024/02/08 18:57:03;;;;;;;12.93;5.38;;;;;;;10.83;100.00;98091.03;10200053;28;20066;-64
2024/02/08 19:02:08;;;;;;;11.77;4.88;;;;;;;10.85;100.00;98097.81;10208523;28;20105;-65
2024/02/08 19:07:11;;;;;;;11.88;5.00;;;;;;;10.89;100.00;98093.81;10186878;28;20160;-65
2024/02/08 19:12:14;;;;;;;12.35;4.50;;;;;;;10.93;100.00;98096.97;10192001;28;20263;-66
2024/02/08 19:17:19;;;;;;;9.18;3.90;;;;;;;10.94;100.00;98088.78;10211459;28;20062;-65
2024/02/08 19:22:22;;;;;;;12.23;5.15;;;;;;;10.98;100.00;98088.44;10206254;28;20651;-65
2024/02/08 19:27:28;;;;;;;16.40;5.05;;;;;;;10.99;100.00;98084.75;10202644;28;20564;-65
2024/02/08 19:32:33;;;;;;;13.50;4.97;;;;;;;11.00;100.00;98073.91;10206129;28;20122;-64
2024/02/08 19:37:36;;;;;;;14.93;5.57;;;;;;;10.90;100.00;98060.88;10209644;28;20794;-65
2024/02/08 19:42:38;;;;;;;11.77;5.15;;;;;;;11.04;100.00;98077.06;10205098;28;20511;-64
2024/02/08 19:47:39;;;;;;;13.32;5.93;;;;;;;11.05;100.00;98073.38;10199862;28;20122;-63
2024/02/08 19:52:44;;;;;;;12.27;4.57;;;;;;;11.06;100.00;98056.41;10195169;28;20059;-65
2024/02/08 19:57:48;;;;;;;17.88;5.93;;;;;;;10.87;100.00;98037.28;10203281;28;20070;-64
2024/02/08 20:02:52;;;;;;;13.37;5.20;;;;;;;10.97;100.00;98050.31;10175985;28;20588;-66
2024/02/08 20:07:56;;;;;;;11.70;4.63;;;;;;;10.99;100.00;98058.97;10201271;28;20361;-64
2024/02/08 20:13:01;;;;;;;16.02;5.65;;;;;;;10.92;100.00;98050.03;10198388;28;20748;-65
2024/02/08 20:18:03;;;;;;;10.02;4.82;;;;;;;10.95;100.00;98068.31;10189422;28;20055;-64
2024/02/08 20:23:10;;;;;;;16.08;6.55;;;;;;;10.88;100.00;98043.41;10195524;28;20458;-65
2024/02/08 20:28:12;;;;;;;13.50;5.43;;;;;;;10.94;100.00;98056.84;10191772;28;20059;-65
2024/02/08 20:33:15;;;;;;;14.82;5.78;;;;;;;10.91;100.00;98048.38;10183438;28;20078;-64
2024/02/08 20:38:18;;;;;;;12.50;5.43;;;;;;;10.91;100.00;98040.41;10193478;28;20087;-64
2024/02/08 20:43:26;;;;;;;13.77;5.30;;;;;;;10.98;100.00;98035.19;10189331;28;20126;-65
2024/02/08 20:48:33;;;;;;;18.20;5.45;;;;;;;10.97;100.00;98031.69;10171886;28;20058;-64
2024/02/08 20:53:34;;;;;;;;;;;;;;;11.00;100.00;98022.53;10194757;28;20659;-67
2024/02/08 20:58:40;;;;;;;15.77;5.53;;;;;;;10.91;100.00;98006.63;10196872;28;20020;-65
2024/02/08 21:03:41;;;;;;;12.98;6.15;;;;;;;10.77;100.00;97978.97;10200927;28;20052;-66
2024/02/08 21:08:46;;;;;;;12.75;4.72;;;;;;;11.02;100.00;98016.00;10171841;28;20066;-65
2024/02/08 21:13:48;;;;;;;11.43;6.85;;;;;;;10.99;100.00;98004.88;10196859;28;20060;-64
2024/02/08 21:18:51;;;;;;;15.15;4.88;;;;;;;10.98;100.00;97997.94;10201330;28;20058;-65
2024/02/08 21:23:55;;;;;;;11.98;5.22;;;;;;;11.08;100.00;97988.66;10185593;28;20058;-65
2024/02/08 21:28:56;;;;;;;12.60;5.40;;;;;;;11.06;100.00;97973.88;10178213;28;20047;-65
2024/02/08 21:34:00;;;;;;;12.63;5.00;;;;;;;11.13;100.00;97988.13;10203773;28;20047;-64
2024/02/08 21:39:15;;;;;;;12.82;4.72;;;;;;;11.13;100.00;97986.25;10206342;28;20539;-65
2024/02/08 21:44:20;;;;;;;14.63;5.03;;;;;;;11.13;100.00;97975.63;10198517;28;20049;-65
2024/02/08 21:49:25;;;;;;;12.77;4.75;;;;;;;11.14;100.00;97976.47;10166528;28;20055;-65
2024/02/08 21:54:27;;;;;;;14.68;6.07;;;;;;;11.12;100.00;97987.31;10203677;28;20058;-67
2024/02/08 21:59:30;;;;;;;18.83;5.30;;;;;;;11.12;100.00;97981.13;10202191;28;20055;-64
2024/02/08 22:04:31;;;;;;;19.25;5.70;;;;;;;11.14;100.00;97963.16;10187700;28;20063;-65
2024/02/08 22:09:33;;;;;;;19.00;6.00;;;;;;;11.15;100.00;97959.47;10179575;28;20174;-64
2024/02/08 22:14:37;;;;;;;15.25;5.22;;;;;;;11.23;100.00;97959.38;10209899;28;20053;-65
2024/02/08 22:19:43;;;;;;;16.20;6.00;;;;;;;11.11;100.00;97937.72;10194323;28;20042;-66
2024/02/08 22:24:45;;;;;;;13.18;5.85;;;;;;;11.13;100.00;97953.50;10201921;28;20051;-65
2024/02/08 22:29:46;;;;;;;12.13;5.35;;;;;;;11.12;100.00;97935.88;10202549;28;20051;-65
2024/02/08 22:34:49;;;;;;;17.15;6.10;;;;;;;11.09;100.00;97930.91;10193908;28;20051;-65
2024/02/08 22:39:51;;;;;;;17.98;6.78;;;;;;;11.09;100.00;97920.25;10219921;28;20047;-65
2024/02/08 22:44:52;;;;;;;18.80;6.38;;;;;;;11.15;100.00;97911.53;10205155;28;20304;-65
2024/02/08 22:49:54;;;;;;;14.77;6.30;;;;;;;11.19;100.00;97907.50;10200432;28;20133;-63
2024/02/08 22:54:56;;;;;;;13.60;5.90;;;;;;;11.23;100.00;97911.44;10201130;28;20057;-64
2024/02/08 22:59:58;;;;;;;16.05;6.20;;;;;;;11.29;100.00;97923.22;10192400;28;20050;-65
2024/02/08 23:04:59;;;;;;;15.27;5.18;;;;;;;11.28;100.00;97927.69;10198904;28;20431;-65
2024/02/08 23:10:05;;;;;;;11.15;5.43;;;;;;;11.26;100.00;97910.22;10200534;28;20100;-64
2024/02/08 23:15:07;;;;;;;14.82;5.72;;;;;;;11.17;100.00;97906.03;10216887;28;20055;-65
2024/02/08 23:20:14;;;;;;;12.23;4.97;;;;;;;11.16;100.00;97889.22;10190060;28;20782;-65
2024/02/08 23:25:16;;;;;;;13.15;5.07;;;;;;;11.22;100.00;97888.47;10190344;28;20170;-64
2024/02/08 23:30:19;;;;;;;13.57;5.55;;;;;;;11.23;100.00;97882.16;10198864;28;20066;-65
2024/02/08 23:35:22;;;;;;;13.77;5.38;;;;;;;11.15;100.00;97855.63;10200408;28;20055;-63
2024/02/08 23:40:26;;;;;;;11.20;5.20;;;;;;;11.23;100.00;97862.66;10208745;28;20079;-64
2024/02/08 23:45:33;;;;;;;16.25;5.90;;;;;;;11.21;100.00;97854.88;10208483;28;20055;-64
2024/02/08 23:50:35;;;;;;;19.35;5.45;;;;;;;11.26;100.00;97843.66;10199808;28;20051;-65
2024/02/08 23:55:37;;;;;;;13.07;5.85;;;;;;;11.25;100.00;97829.53;10204479;28;20055;-63
